sensor_id;sensor_type;location;lat;lon;timestamp;temperature;humidity
16404;DHT22;8311;50.158;8.642;2022-11-13T00:01:09;18.70;54.90
16404;DHT22;8311;50.158;8.642;2022-11-13T00:04:02;18.70;54.90
16404;DHT22;8311;50.158;8.642;2022-11-13T00:06:55;18.60;54.80
16404;DHT22;8311;50.158;8.642;2022-11-13T00:09:50;18.70;54.80
16404;DHT22;8311;50.158;8.642;2022-11-13T00:12:44;18.70;54.80
16404;DHT22;8311;50.158;8.642;2022-11-13T00:15:37;18.70;54.80
16404;DHT22;8311;50.158;8.642;2022-11-13T00:18:33;18.70;54.80
16404;DHT22;8311;50.158;8.642;2022-11-13T00:21:26;18.70;54.80
16404;DHT22;8311;50.158;8.642;2022-11-13T00:24:19;18.70;54.80
16404;DHT22;8311;50.158;8.642;2022-11-13T00:27:12;18.70;54.80
16404;DHT22;8311;50.158;8.642;2022-11-13T00:30:08;18.70;54.80
16404;DHT22;8311;50.158;8.642;2022-11-13T00:33:08;18.70;54.80
16404;DHT22;8311;50.158;8.642;2022-11-13T00:36:03;18.70;55.20
16404;DHT22;8311;50.158;8.642;2022-11-13T00:38:56;18.70;55.00
16404;DHT22;8311;50.158;8.642;2022-11-13T00:41:49;18.70;54.90
16404;DHT22;8311;50.158;8.642;2022-11-13T00:44:42;18.70;54.80
16404;DHT22;8311;50.158;8.642;2022-11-13T00:47:37;18.70;54.80
16404;DHT22;8311;50.158;8.642;2022-11-13T00:50:30;18.70;54.60
16404;DHT22;8311;50.158;8.642;2022-11-13T00:53:24;18.70;54.50
16404;DHT22;8311;50.158;8.642;2022-11-13T00:56:17;18.70;54.40
16404;DHT22;8311;50.158;8.642;2022-11-13T00:59:10;18.60;54.30
16404;DHT22;8311;50.158;8.642;2022-11-13T01:02:03;18.60;54.20
16404;DHT22;8311;50.158;8.642;2022-11-13T01:04:58;18.60;54.10
16404;DHT22;8311;50.158;8.642;2022-11-13T01:07:52;18.60;54.00
16404;DHT22;8311;50.158;8.642;2022-11-13T01:10:46;18.60;53.90
16404;DHT22;8311;50.158;8.642;2022-11-13T01:13:46;18.60;53.80
16404;DHT22;8311;50.158;8.642;2022-11-13T01:16:39;18.60;53.80
16404;DHT22;8311;50.158;8.642;2022-11-13T01:19:32;18.60;53.70
16404;DHT22;8311;50.158;8.642;2022-11-13T01:22:27;18.60;53.60
16404;DHT22;8311;50.158;8.642;2022-11-13T01:25:21;18.60;53.60
16404;DHT22;8311;50.158;8.642;2022-11-13T01:28:13;18.60;53.50
16404;DHT22;8311;50.158;8.642;2022-11-13T01:31:07;18.60;53.50
16404;DHT22;8311;50.158;8.642;2022-11-13T01:34:00;18.60;53.40
16404;DHT22;8311;50.158;8.642;2022-11-13T01:36:53;18.60;53.40
16404;DHT22;8311;50.158;8.642;2022-11-13T01:39:48;18.60;53.30
16404;DHT22;8311;50.158;8.642;2022-11-13T01:42:40;18.60;53.30
16404;DHT22;8311;50.158;8.642;2022-11-13T01:46:17;18.60;53.20
16404;DHT22;8311;50.158;8.642;2022-11-13T01:49:25;18.60;53.20
16404;DHT22;8311;50.158;8.642;2022-11-13T01:52:23;18.60;53.20
16404;DHT22;8311;50.158;8.642;2022-11-13T01:55:19;18.60;53.10
16404;DHT22;8311;50.158;8.642;2022-11-13T01:58:13;18.60;53.10
16404;DHT22;8311;50.158;8.642;2022-11-13T02:01:06;18.60;53.00
16404;DHT22;8311;50.158;8.642;2022-11-13T02:03:59;18.60;53.00
16404;DHT22;8311;50.158;8.642;2022-11-13T02:06:55;18.60;53.00
16404;DHT22;8311;50.158;8.642;2022-11-13T02:09:52;18.60;53.00
16404;DHT22;8311;50.158;8.642;2022-11-13T02:12:49;18.60;53.00
16404;DHT22;8311;50.158;8.642;2022-11-13T02:15:43;18.60;52.90
16404;DHT22;8311;50.158;8.642;2022-11-13T02:18:38;18.60;52.90
16404;DHT22;8311;50.158;8.642;2022-11-13T02:21:39;18.60;52.90
16404;DHT22;8311;50.158;8.642;2022-11-13T02:24:35;18.60;52.90
16404;DHT22;8311;50.158;8.642;2022-11-13T02:27:41;18.50;52.90
16404;DHT22;8311;50.158;8.642;2022-11-13T02:30:36;18.50;52.90
16404;DHT22;8311;50.158;8.642;2022-11-13T02:33:31;18.50;52.90
16404;DHT22;8311;50.158;8.642;2022-11-13T02:36:25;18.60;53.00
16404;DHT22;8311;50.158;8.642;2022-11-13T02:39:18;18.60;52.90
16404;DHT22;8311;50.158;8.642;2022-11-13T02:42:12;18.60;52.90
16404;DHT22;8311;50.158;8.642;2022-11-13T02:45:06;18.50;52.80
16404;DHT22;8311;50.158;8.642;2022-11-13T02:48:00;18.60;52.90
16404;DHT22;8311;50.158;8.642;2022-11-13T02:50:54;18.50;52.80
16404;DHT22;8311;50.158;8.642;2022-11-13T02:53:48;18.50;52.70
16404;DHT22;8311;50.158;8.642;2022-11-13T02:56:41;18.60;52.70
16404;DHT22;8311;50.158;8.642;2022-11-13T02:59:36;18.50;52.60
16404;DHT22;8311;50.158;8.642;2022-11-13T03:02:28;18.50;52.60
16404;DHT22;8311;50.158;8.642;2022-11-13T03:05:22;18.50;52.50
16404;DHT22;8311;50.158;8.642;2022-11-13T03:08:14;18.50;52.50
16404;DHT22;8311;50.158;8.642;2022-11-13T03:11:08;18.50;52.50
16404;DHT22;8311;50.158;8.642;2022-11-13T03:14:02;18.50;52.50
16404;DHT22;8311;50.158;8.642;2022-11-13T03:16:56;18.60;52.50
16404;DHT22;8311;50.158;8.642;2022-11-13T03:19:49;18.50;52.40
16404;DHT22;8311;50.158;8.642;2022-11-13T03:22:42;18.50;52.30
16404;DHT22;8311;50.158;8.642;2022-11-13T03:25:35;18.50;52.30
16404;DHT22;8311;50.158;8.642;2022-11-13T03:28:28;18.50;52.20
16404;DHT22;8311;50.158;8.642;2022-11-13T03:31:22;18.50;52.80
16404;DHT22;8311;50.158;8.642;2022-11-13T03:34:16;18.50;52.20
16404;DHT22;8311;50.158;8.642;2022-11-13T03:37:09;18.50;52.10
16404;DHT22;8311;50.158;8.642;2022-11-13T03:40:03;18.50;52.10
16404;DHT22;8311;50.158;8.642;2022-11-13T03:42:57;18.50;52.70
16404;DHT22;8311;50.158;8.642;2022-11-13T03:45:50;18.50;52.00
16404;DHT22;8311;50.158;8.642;2022-11-13T03:48:43;18.50;52.00
16404;DHT22;8311;50.158;8.642;2022-11-13T03:51:36;18.50;52.00
16404;DHT22;8311;50.158;8.642;2022-11-13T03:54:29;18.50;51.90
16404;DHT22;8311;50.158;8.642;2022-11-13T03:57:23;18.50;51.90
16404;DHT22;8311;50.158;8.642;2022-11-13T04:00:17;18.50;51.90
16404;DHT22;8311;50.158;8.642;2022-11-13T04:03:10;18.50;51.90
16404;DHT22;8311;50.158;8.642;2022-11-13T04:06:04;18.50;51.80
16404;DHT22;8311;50.158;8.642;2022-11-13T04:08:58;18.50;51.80
16404;DHT22;8311;50.158;8.642;2022-11-13T04:11:51;18.50;51.80
16404;DHT22;8311;50.158;8.642;2022-11-13T04:14:44;18.50;51.80
16404;DHT22;8311;50.158;8.642;2022-11-13T04:17:38;18.50;51.80
16404;DHT22;8311;50.158;8.642;2022-11-13T04:20:31;18.50;51.80
16404;DHT22;8311;50.158;8.642;2022-11-13T04:23:24;18.50;51.80
16404;DHT22;8311;50.158;8.642;2022-11-13T04:26:19;18.50;51.80
16404;DHT22;8311;50.158;8.642;2022-11-13T04:29:12;18.50;51.80
16404;DHT22;8311;50.158;8.642;2022-11-13T04:32:05;18.50;51.80
16404;DHT22;8311;50.158;8.642;2022-11-13T04:34:59;18.50;51.80
16404;DHT22;8311;50.158;8.642;2022-11-13T04:37:52;18.40;51.70
16404;DHT22;8311;50.158;8.642;2022-11-13T04:40:48;18.50;51.80
16404;DHT22;8311;50.158;8.642;2022-11-13T04:43:43;18.40;51.70
16404;DHT22;8311;50.158;8.642;2022-11-13T04:46:35;18.40;51.70
16404;DHT22;8311;50.158;8.642;2022-11-13T04:49:27;18.50;51.70
16404;DHT22;8311;50.158;8.642;2022-11-13T04:52:21;18.40;51.70
16404;DHT22;8311;50.158;8.642;2022-11-13T04:55:14;18.40;51.70
16404;DHT22;8311;50.158;8.642;2022-11-13T04:58:07;18.40;51.70
16404;DHT22;8311;50.158;8.642;2022-11-13T05:01:02;18.40;51.70
16404;DHT22;8311;50.158;8.642;2022-11-13T05:03:55;18.40;51.70
16404;DHT22;8311;50.158;8.642;2022-11-13T05:06:49;18.40;51.70
16404;DHT22;8311;50.158;8.642;2022-11-13T05:09:42;18.40;51.60
16404;DHT22;8311;50.158;8.642;2022-11-13T05:12:34;18.40;51.60
16404;DHT22;8311;50.158;8.642;2022-11-13T05:15:28;18.40;51.50
16404;DHT22;8311;50.158;8.642;2022-11-13T05:18:25;18.40;51.50
16404;DHT22;8311;50.158;8.642;2022-11-13T05:21:18;18.40;51.50
16404;DHT22;8311;50.158;8.642;2022-11-13T05:24:12;18.40;51.50
16404;DHT22;8311;50.158;8.642;2022-11-13T05:27:04;18.40;51.40
16404;DHT22;8311;50.158;8.642;2022-11-13T05:29:57;18.40;51.40
16404;DHT22;8311;50.158;8.642;2022-11-13T05:32:51;18.40;51.30
16404;DHT22;8311;50.158;8.642;2022-11-13T05:35:46;18.40;51.30
16404;DHT22;8311;50.158;8.642;2022-11-13T05:38:39;18.40;51.30
16404;DHT22;8311;50.158;8.642;2022-11-13T05:41:32;18.40;51.30
16404;DHT22;8311;50.158;8.642;2022-11-13T05:44:27;18.40;51.30
16404;DHT22;8311;50.158;8.642;2022-11-13T05:47:20;18.40;51.30
16404;DHT22;8311;50.158;8.642;2022-11-13T05:50:14;18.40;51.20
16404;DHT22;8311;50.158;8.642;2022-11-13T05:53:09;18.40;51.20
16404;DHT22;8311;50.158;8.642;2022-11-13T05:56:03;18.40;51.20
16404;DHT22;8311;50.158;8.642;2022-11-13T05:58:58;18.40;51.20
16404;DHT22;8311;50.158;8.642;2022-11-13T06:01:51;18.40;51.10
16404;DHT22;8311;50.158;8.642;2022-11-13T06:04:47;18.40;51.10
16404;DHT22;8311;50.158;8.642;2022-11-13T06:07:42;18.40;51.10
16404;DHT22;8311;50.158;8.642;2022-11-13T06:10:37;18.30;51.10
16404;DHT22;8311;50.158;8.642;2022-11-13T06:13:31;18.40;51.10
16404;DHT22;8311;50.158;8.642;2022-11-13T06:16:27;18.30;50.90
16404;DHT22;8311;50.158;8.642;2022-11-13T06:19:20;18.40;51.00
16404;DHT22;8311;50.158;8.642;2022-11-13T06:22:14;18.30;50.90
16404;DHT22;8311;50.158;8.642;2022-11-13T06:25:07;18.30;50.90
16404;DHT22;8311;50.158;8.642;2022-11-13T06:28:01;18.30;50.80
16404;DHT22;8311;50.158;8.642;2022-11-13T06:30:55;18.30;50.80
16404;DHT22;8311;50.158;8.642;2022-11-13T06:33:49;18.30;50.70
16404;DHT22;8311;50.158;8.642;2022-11-13T06:36:41;18.40;50.70
16404;DHT22;8311;50.158;8.642;2022-11-13T06:39:34;18.30;50.70
16404;DHT22;8311;50.158;8.642;2022-11-13T06:42:27;18.40;50.70
16404;DHT22;8311;50.158;8.642;2022-11-13T06:45:22;18.30;50.70
16404;DHT22;8311;50.158;8.642;2022-11-13T06:48:16;18.30;50.60
16404;DHT22;8311;50.158;8.642;2022-11-13T06:51:13;18.30;50.60
16404;DHT22;8311;50.158;8.642;2022-11-13T06:54:06;18.30;50.60
16404;DHT22;8311;50.158;8.642;2022-11-13T06:57:00;18.30;50.50
16404;DHT22;8311;50.158;8.642;2022-11-13T06:59:53;18.40;50.50
16404;DHT22;8311;50.158;8.642;2022-11-13T07:02:48;18.40;50.50
16404;DHT22;8311;50.158;8.642;2022-11-13T07:05:42;18.40;50.50
16404;DHT22;8311;50.158;8.642;2022-11-13T07:08:35;18.30;50.40
16404;DHT22;8311;50.158;8.642;2022-11-13T07:11:29;18.30;50.40
16404;DHT22;8311;50.158;8.642;2022-11-13T07:14:22;18.30;50.40
16404;DHT22;8311;50.158;8.642;2022-11-13T07:17:15;18.30;50.30
16404;DHT22;8311;50.158;8.642;2022-11-13T07:20:10;18.30;50.30
16404;DHT22;8311;50.158;8.642;2022-11-13T07:23:03;18.30;50.20
16404;DHT22;8311;50.158;8.642;2022-11-13T07:25:57;18.30;50.10
16404;DHT22;8311;50.158;8.642;2022-11-13T07:28:50;18.30;50.10
16404;DHT22;8311;50.158;8.642;2022-11-13T07:31:43;18.30;50.10
16404;DHT22;8311;50.158;8.642;2022-11-13T07:34:36;18.30;50.00
16404;DHT22;8311;50.158;8.642;2022-11-13T07:37:30;18.30;50.10
16404;DHT22;8311;50.158;8.642;2022-11-13T07:40:23;18.30;50.10
16404;DHT22;8311;50.158;8.642;2022-11-13T07:43:16;18.30;50.10
16404;DHT22;8311;50.158;8.642;2022-11-13T07:46:10;18.30;50.10
16404;DHT22;8311;50.158;8.642;2022-11-13T07:49:03;18.30;50.10
16404;DHT22;8311;50.158;8.642;2022-11-13T07:51:56;18.30;50.50
16404;DHT22;8311;50.158;8.642;2022-11-13T07:54:50;18.30;50.10
16404;DHT22;8311;50.158;8.642;2022-11-13T07:57:43;18.30;49.80
16404;DHT22;8311;50.158;8.642;2022-11-13T08:00:36;18.30;49.80
16404;DHT22;8311;50.158;8.642;2022-11-13T08:03:30;18.30;49.20
16404;DHT22;8311;50.158;8.642;2022-11-13T08:06:24;18.40;50.30
16404;DHT22;8311;50.158;8.642;2022-11-13T08:09:19;18.40;50.80
16404;DHT22;8311;50.158;8.642;2022-11-13T08:12:14;18.40;51.70
16404;DHT22;8311;50.158;8.642;2022-11-13T08:15:08;18.50;51.90
16404;DHT22;8311;50.158;8.642;2022-11-13T08:18:05;18.60;52.10
16404;DHT22;8311;50.158;8.642;2022-11-13T08:21:00;18.70;52.30
16404;DHT22;8311;50.158;8.642;2022-11-13T08:23:54;18.70;52.30
16404;DHT22;8311;50.158;8.642;2022-11-13T08:26:47;18.80;52.40
16404;DHT22;8311;50.158;8.642;2022-11-13T08:29:42;18.80;52.50
16404;DHT22;8311;50.158;8.642;2022-11-13T08:32:35;18.90;52.60
16404;DHT22;8311;50.158;8.642;2022-11-13T08:35:28;18.90;52.70
16404;DHT22;8311;50.158;8.642;2022-11-13T08:38:21;19.00;52.70
16404;DHT22;8311;50.158;8.642;2022-11-13T08:41:13;19.00;52.70
16404;DHT22;8311;50.158;8.642;2022-11-13T08:44:07;19.00;52.60
16404;DHT22;8311;50.158;8.642;2022-11-13T08:47:02;19.10;52.60
16404;DHT22;8311;50.158;8.642;2022-11-13T08:49:56;19.20;52.80
16404;DHT22;8311;50.158;8.642;2022-11-13T08:52:52;19.20;52.80
16404;DHT22;8311;50.158;8.642;2022-11-13T08:55:46;19.30;53.00
16404;DHT22;8311;50.158;8.642;2022-11-13T08:58:38;19.30;53.00
16404;DHT22;8311;50.158;8.642;2022-11-13T09:01:31;19.40;53.10
16404;DHT22;8311;50.158;8.642;2022-11-13T09:04:26;19.50;53.10
16404;DHT22;8311;50.158;8.642;2022-11-13T09:07:20;19.50;53.20
16404;DHT22;8311;50.158;8.642;2022-11-13T09:10:18;19.60;53.20
16404;DHT22;8311;50.158;8.642;2022-11-13T09:13:11;19.60;53.20
16404;DHT22;8311;50.158;8.642;2022-11-13T09:16:04;19.70;53.20
16404;DHT22;8311;50.158;8.642;2022-11-13T09:18:58;19.70;53.10
16404;DHT22;8311;50.158;8.642;2022-11-13T09:21:52;19.80;53.20
16404;DHT22;8311;50.158;8.642;2022-11-13T09:24:46;19.90;53.50
16404;DHT22;8311;50.158;8.642;2022-11-13T09:27:40;19.90;53.60
16404;DHT22;8311;50.158;8.642;2022-11-13T09:30:33;20.10;53.70
16404;DHT22;8311;50.158;8.642;2022-11-13T09:33:26;20.10;53.50
16404;DHT22;8311;50.158;8.642;2022-11-13T09:36:20;20.20;53.50
16404;DHT22;8311;50.158;8.642;2022-11-13T09:39:14;20.40;53.90
16404;DHT22;8311;50.158;8.642;2022-11-13T09:42:12;20.50;53.90
16404;DHT22;8311;50.158;8.642;2022-11-13T09:45:11;20.60;53.80
16404;DHT22;8311;50.158;8.642;2022-11-13T09:48:22;20.70;54.00
16404;DHT22;8311;50.158;8.642;2022-11-13T09:51:20;20.80;54.10
16404;DHT22;8311;50.158;8.642;2022-11-13T09:54:16;20.90;54.10
16404;DHT22;8311;50.158;8.642;2022-11-13T09:57:17;20.90;53.90
16404;DHT22;8311;50.158;8.642;2022-11-13T10:00:19;21.00;54.00
16404;DHT22;8311;50.158;8.642;2022-11-13T10:03:24;21.20;53.80
16404;DHT22;8311;50.158;8.642;2022-11-13T10:06:48;21.20;53.70
16404;DHT22;8311;50.158;8.642;2022-11-13T10:10:03;21.30;53.50
16404;DHT22;8311;50.158;8.642;2022-11-13T10:13:01;21.40;53.40
16404;DHT22;8311;50.158;8.642;2022-11-13T10:16:12;21.50;53.40
16404;DHT22;8311;50.158;8.642;2022-11-13T10:19:17;21.60;53.20
16404;DHT22;8311;50.158;8.642;2022-11-13T10:22:18;21.60;53.20
16404;DHT22;8311;50.158;8.642;2022-11-13T10:25:31;21.70;53.10
16404;DHT22;8311;50.158;8.642;2022-11-13T10:28:27;21.80;53.00
16404;DHT22;8311;50.158;8.642;2022-11-13T10:31:41;21.80;52.90
16404;DHT22;8311;50.158;8.642;2022-11-13T10:34:35;21.90;52.80
16404;DHT22;8311;50.158;8.642;2022-11-13T10:37:39;22.00;52.70
16404;DHT22;8311;50.158;8.642;2022-11-13T10:40:37;22.10;52.60
16404;DHT22;8311;50.158;8.642;2022-11-13T10:43:31;22.20;52.50
16404;DHT22;8311;50.158;8.642;2022-11-13T10:46:26;22.20;52.30
16404;DHT22;8311;50.158;8.642;2022-11-13T10:49:25;22.30;52.20
16404;DHT22;8311;50.158;8.642;2022-11-13T10:52:22;22.30;52.20
16404;DHT22;8311;50.158;8.642;2022-11-13T10:55:19;22.30;52.10
16404;DHT22;8311;50.158;8.642;2022-11-13T10:58:17;22.30;52.00
16404;DHT22;8311;50.158;8.642;2022-11-13T11:01:25;22.30;52.00
16404;DHT22;8311;50.158;8.642;2022-11-13T11:04:36;22.40;52.10
16404;DHT22;8311;50.158;8.642;2022-11-13T11:07:29;22.40;52.10
16404;DHT22;8311;50.158;8.642;2022-11-13T11:10:30;22.40;52.10
16404;DHT22;8311;50.158;8.642;2022-11-13T11:13:26;22.30;52.10
16404;DHT22;8311;50.158;8.642;2022-11-13T11:16:22;22.30;52.30
16404;DHT22;8311;50.158;8.642;2022-11-13T11:19:18;22.30;52.30
16404;DHT22;8311;50.158;8.642;2022-11-13T11:22:14;22.20;52.40
16404;DHT22;8311;50.158;8.642;2022-11-13T11:25:13;22.20;52.40
16404;DHT22;8311;50.158;8.642;2022-11-13T11:28:13;22.20;52.60
16404;DHT22;8311;50.158;8.642;2022-11-13T11:31:15;22.20;52.60
16404;DHT22;8311;50.158;8.642;2022-11-13T11:34:15;22.20;52.70
16404;DHT22;8311;50.158;8.642;2022-11-13T11:37:13;22.20;52.70
16404;DHT22;8311;50.158;8.642;2022-11-13T11:40:16;22.20;52.70
16404;DHT22;8311;50.158;8.642;2022-11-13T11:43:17;22.20;52.70
16404;DHT22;8311;50.158;8.642;2022-11-13T11:46:16;22.30;52.80
16404;DHT22;8311;50.158;8.642;2022-11-13T11:49:12;22.30;52.80
16404;DHT22;8311;50.158;8.642;2022-11-13T11:52:17;22.30;52.60
16404;DHT22;8311;50.158;8.642;2022-11-13T11:55:25;22.30;52.70
16404;DHT22;8311;50.158;8.642;2022-11-13T11:58:39;22.30;52.70
16404;DHT22;8311;50.158;8.642;2022-11-13T12:01:56;22.40;52.60
16404;DHT22;8311;50.158;8.642;2022-11-13T12:05:02;22.40;52.60
16404;DHT22;8311;50.158;8.642;2022-11-13T12:08:05;22.40;52.70
16404;DHT22;8311;50.158;8.642;2022-11-13T12:11:03;22.40;52.60
16404;DHT22;8311;50.158;8.642;2022-11-13T12:14:08;22.50;52.50
16404;DHT22;8311;50.158;8.642;2022-11-13T12:17:17;22.50;53.10
16404;DHT22;8311;50.158;8.642;2022-11-13T12:20:23;22.50;52.40
16404;DHT22;8311;50.158;8.642;2022-11-13T12:23:29;22.50;52.20
16404;DHT22;8311;50.158;8.642;2022-11-13T12:26:27;22.50;52.20
16404;DHT22;8311;50.158;8.642;2022-11-13T12:33:02;22.40;51.90
16404;DHT22;8311;50.158;8.642;2022-11-13T12:35:58;22.40;52.00
16404;DHT22;8311;50.158;8.642;2022-11-13T12:38:57;22.30;51.80
16404;DHT22;8311;50.158;8.642;2022-11-13T12:41:56;22.30;51.80
16404;DHT22;8311;50.158;8.642;2022-11-13T12:44:58;22.30;51.80
16404;DHT22;8311;50.158;8.642;2022-11-13T12:47:54;22.20;51.70
16404;DHT22;8311;50.158;8.642;2022-11-13T12:50:56;22.20;51.70
16404;DHT22;8311;50.158;8.642;2022-11-13T12:53:51;22.20;51.80
16404;DHT22;8311;50.158;8.642;2022-11-13T12:56:45;22.20;51.80
16404;DHT22;8311;50.158;8.642;2022-11-13T12:59:40;22.20;51.80
16404;DHT22;8311;50.158;8.642;2022-11-13T13:02:56;22.10;51.70
16404;DHT22;8311;50.158;8.642;2022-11-13T13:06:08;22.10;51.80
16404;DHT22;8311;50.158;8.642;2022-11-13T13:09:12;22.10;51.70
16404;DHT22;8311;50.158;8.642;2022-11-13T13:12:15;22.00;51.70
16404;DHT22;8311;50.158;8.642;2022-11-13T13:15:27;22.00;51.80
16404;DHT22;8311;50.158;8.642;2022-11-13T13:18:28;21.90;51.80
16404;DHT22;8311;50.158;8.642;2022-11-13T13:21:23;21.90;51.90
16404;DHT22;8311;50.158;8.642;2022-11-13T13:24:35;21.90;52.00
16404;DHT22;8311;50.158;8.642;2022-11-13T13:27:31;21.90;52.10
16404;DHT22;8311;50.158;8.642;2022-11-13T13:30:27;21.80;52.00
16404;DHT22;8311;50.158;8.642;2022-11-13T13:33:29;21.80;51.80
16404;DHT22;8311;50.158;8.642;2022-11-13T13:36:31;21.70;52.10
16404;DHT22;8311;50.158;8.642;2022-11-13T13:39:46;21.70;52.00
16404;DHT22;8311;50.158;8.642;2022-11-13T13:42:54;21.60;52.10
16404;DHT22;8311;50.158;8.642;2022-11-13T13:45:59;21.60;52.00
16404;DHT22;8311;50.158;8.642;2022-11-13T13:49:03;21.60;52.10
16404;DHT22;8311;50.158;8.642;2022-11-13T13:51:57;21.50;52.00
16404;DHT22;8311;50.158;8.642;2022-11-13T13:54:51;21.50;52.20
16404;DHT22;8311;50.158;8.642;2022-11-13T13:57:45;21.40;52.10
16404;DHT22;8311;50.158;8.642;2022-11-13T14:00:39;21.40;52.20
16404;DHT22;8311;50.158;8.642;2022-11-13T14:04:11;21.30;52.20
16404;DHT22;8311;50.158;8.642;2022-11-13T14:07:21;21.30;52.40
16404;DHT22;8311;50.158;8.642;2022-11-13T14:10:17;21.30;52.40
16404;DHT22;8311;50.158;8.642;2022-11-13T14:13:11;21.20;52.50
16404;DHT22;8311;50.158;8.642;2022-11-13T14:16:06;21.20;52.60
16404;DHT22;8311;50.158;8.642;2022-11-13T14:19:04;21.20;52.60
16404;DHT22;8311;50.158;8.642;2022-11-13T14:21:58;21.20;52.60
16404;DHT22;8311;50.158;8.642;2022-11-13T14:24:53;21.10;52.80
16404;DHT22;8311;50.158;8.642;2022-11-13T14:27:48;21.10;52.70
16404;DHT22;8311;50.158;8.642;2022-11-13T14:30:42;21.10;52.90
16404;DHT22;8311;50.158;8.642;2022-11-13T14:33:40;21.10;52.90
16404;DHT22;8311;50.158;8.642;2022-11-13T14:36:37;21.00;52.90
16404;DHT22;8311;50.158;8.642;2022-11-13T14:39:32;21.00;53.00
16404;DHT22;8311;50.158;8.642;2022-11-13T14:42:28;21.00;53.20
16404;DHT22;8311;50.158;8.642;2022-11-13T14:45:28;21.00;53.10
16404;DHT22;8311;50.158;8.642;2022-11-13T14:48:24;20.90;53.20
16404;DHT22;8311;50.158;8.642;2022-11-13T14:51:22;20.90;53.10
16404;DHT22;8311;50.158;8.642;2022-11-13T14:54:29;20.90;53.20
16404;DHT22;8311;50.158;8.642;2022-11-13T14:57:46;20.80;53.20
16404;DHT22;8311;50.158;8.642;2022-11-13T15:00:40;20.80;53.20
16404;DHT22;8311;50.158;8.642;2022-11-13T15:03:33;20.80;53.20
16404;DHT22;8311;50.158;8.642;2022-11-13T15:06:33;20.80;53.20
16404;DHT22;8311;50.158;8.642;2022-11-13T15:09:29;20.80;53.30
16404;DHT22;8311;50.158;8.642;2022-11-13T15:12:22;20.80;53.30
16404;DHT22;8311;50.158;8.642;2022-11-13T15:15:18;20.80;53.30
16404;DHT22;8311;50.158;8.642;2022-11-13T15:18:14;20.70;53.30
16404;DHT22;8311;50.158;8.642;2022-11-13T15:21:08;20.70;53.30
16404;DHT22;8311;50.158;8.642;2022-11-13T15:24:02;20.60;53.30
16404;DHT22;8311;50.158;8.642;2022-11-13T15:26:56;20.70;53.30
16404;DHT22;8311;50.158;8.642;2022-11-13T15:29:49;20.60;53.30
16404;DHT22;8311;50.158;8.642;2022-11-13T15:32:43;20.60;53.30
16404;DHT22;8311;50.158;8.642;2022-11-13T15:35:36;20.60;53.40
16404;DHT22;8311;50.158;8.642;2022-11-13T15:38:29;20.60;53.30
16404;DHT22;8311;50.158;8.642;2022-11-13T15:41:23;20.60;53.30
16404;DHT22;8311;50.158;8.642;2022-11-13T15:44:19;20.60;53.40
16404;DHT22;8311;50.158;8.642;2022-11-13T15:47:25;20.60;53.40
16404;DHT22;8311;50.158;8.642;2022-11-13T15:50:19;20.60;53.40
16404;DHT22;8311;50.158;8.642;2022-11-13T15:53:13;20.50;53.50
16404;DHT22;8311;50.158;8.642;2022-11-13T15:56:06;20.50;53.50
16404;DHT22;8311;50.158;8.642;2022-11-13T15:59:00;20.50;53.60
16404;DHT22;8311;50.158;8.642;2022-11-13T16:01:55;20.50;53.50
16404;DHT22;8311;50.158;8.642;2022-11-13T16:04:49;20.50;53.60
16404;DHT22;8311;50.158;8.642;2022-11-13T16:07:48;20.50;53.60
16404;DHT22;8311;50.158;8.642;2022-11-13T16:10:41;20.40;53.50
16404;DHT22;8311;50.158;8.642;2022-11-13T16:13:34;20.40;53.60
16404;DHT22;8311;50.158;8.642;2022-11-13T16:16:30;20.40;53.50
16404;DHT22;8311;50.158;8.642;2022-11-13T16:19:25;20.40;53.60
16404;DHT22;8311;50.158;8.642;2022-11-13T16:22:20;20.40;53.60
16404;DHT22;8311;50.158;8.642;2022-11-13T16:25:16;20.40;53.70
16404;DHT22;8311;50.158;8.642;2022-11-13T16:28:13;20.40;53.60
16404;DHT22;8311;50.158;8.642;2022-11-13T16:31:07;20.40;53.60
16404;DHT22;8311;50.158;8.642;2022-11-13T16:34:00;20.30;53.60
16404;DHT22;8311;50.158;8.642;2022-11-13T16:36:54;20.30;53.60
16404;DHT22;8311;50.158;8.642;2022-11-13T16:39:47;20.30;53.60
16404;DHT22;8311;50.158;8.642;2022-11-13T16:42:40;20.30;53.60
16404;DHT22;8311;50.158;8.642;2022-11-13T16:45:33;20.30;53.70
16404;DHT22;8311;50.158;8.642;2022-11-13T16:48:27;20.30;53.70
16404;DHT22;8311;50.158;8.642;2022-11-13T16:51:20;20.30;53.70
16404;DHT22;8311;50.158;8.642;2022-11-13T16:54:15;20.30;53.80
16404;DHT22;8311;50.158;8.642;2022-11-13T16:57:09;20.20;53.70
16404;DHT22;8311;50.158;8.642;2022-11-13T17:00:06;20.20;53.80
16404;DHT22;8311;50.158;8.642;2022-11-13T17:03:00;20.20;53.80
16404;DHT22;8311;50.158;8.642;2022-11-13T17:05:53;20.20;53.80
16404;DHT22;8311;50.158;8.642;2022-11-13T17:08:48;20.20;53.80
16404;DHT22;8311;50.158;8.642;2022-11-13T17:11:44;20.20;53.80
16404;DHT22;8311;50.158;8.642;2022-11-13T17:14:37;20.20;53.90
16404;DHT22;8311;50.158;8.642;2022-11-13T17:17:31;20.20;53.80
16404;DHT22;8311;50.158;8.642;2022-11-13T17:20:24;20.20;53.90
16404;DHT22;8311;50.158;8.642;2022-11-13T17:23:17;20.10;53.80
16404;DHT22;8311;50.158;8.642;2022-11-13T17:26:10;20.20;53.90
16404;DHT22;8311;50.158;8.642;2022-11-13T17:29:04;20.10;53.80
16404;DHT22;8311;50.158;8.642;2022-11-13T17:31:58;20.10;53.80
16404;DHT22;8311;50.158;8.642;2022-11-13T17:34:51;20.10;53.80
16404;DHT22;8311;50.158;8.642;2022-11-13T17:37:44;20.10;53.80
16404;DHT22;8311;50.158;8.642;2022-11-13T17:40:37;20.10;53.80
16404;DHT22;8311;50.158;8.642;2022-11-13T17:43:33;20.10;53.80
16404;DHT22;8311;50.158;8.642;2022-11-13T17:46:29;20.10;53.90
16404;DHT22;8311;50.158;8.642;2022-11-13T17:49:22;20.10;53.90
16404;DHT22;8311;50.158;8.642;2022-11-13T17:52:15;20.10;53.90
16404;DHT22;8311;50.158;8.642;2022-11-13T17:55:09;20.10;53.90
16404;DHT22;8311;50.158;8.642;2022-11-13T17:58:03;20.00;53.80
16404;DHT22;8311;50.158;8.642;2022-11-13T18:01:03;20.00;53.80
16404;DHT22;8311;50.158;8.642;2022-11-13T18:03:58;20.00;53.80
16404;DHT22;8311;50.158;8.642;2022-11-13T18:06:51;20.00;53.80
16404;DHT22;8311;50.158;8.642;2022-11-13T18:09:44;20.00;53.90
16404;DHT22;8311;50.158;8.642;2022-11-13T18:12:37;20.00;53.90
16404;DHT22;8311;50.158;8.642;2022-11-13T18:15:32;20.00;53.90
16404;DHT22;8311;50.158;8.642;2022-11-13T18:18:27;20.00;53.90
16404;DHT22;8311;50.158;8.642;2022-11-13T18:21:24;20.00;53.90
16404;DHT22;8311;50.158;8.642;2022-11-13T18:24:18;20.00;53.90
16404;DHT22;8311;50.158;8.642;2022-11-13T18:27:12;19.90;53.90
16404;DHT22;8311;50.158;8.642;2022-11-13T18:30:07;19.90;53.90
16404;DHT22;8311;50.158;8.642;2022-11-13T18:33:00;20.00;54.00
16404;DHT22;8311;50.158;8.642;2022-11-13T18:35:54;20.00;54.00
16404;DHT22;8311;50.158;8.642;2022-11-13T18:38:48;19.90;54.00
16404;DHT22;8311;50.158;8.642;2022-11-13T18:41:41;20.00;54.00
16404;DHT22;8311;50.158;8.642;2022-11-13T18:44:34;19.90;54.00
16404;DHT22;8311;50.158;8.642;2022-11-13T18:47:28;19.90;54.00
16404;DHT22;8311;50.158;8.642;2022-11-13T18:50:21;19.90;54.00
16404;DHT22;8311;50.158;8.642;2022-11-13T18:53:14;19.90;54.00